createdAt,value
2019-02-06T00:00:30.571Z,35.60
2019-02-06T00:02:56.609Z,36.25
2019-02-06T00:05:22.988Z,36.73
2019-02-06T00:07:49.173Z,35.33
2019-02-06T00:10:15.428Z,34.88
2019-02-06T00:12:41.526Z,33.70
2019-02-06T00:15:07.992Z,33.75
2019-02-06T00:17:34.230Z,33.50
2019-02-06T00:20:00.419Z,34.20
2019-02-06T00:22:26.515Z,34.35
2019-02-06T00:24:52.552Z,34.70
2019-02-06T00:27:18.883Z,35.52
2019-02-06T00:29:44.957Z,33.13
2019-02-06T00:32:11.083Z,33.15
2019-02-06T00:34:37.149Z,32.75
2019-02-06T00:37:04.304Z,32.58
2019-02-06T00:39:30.426Z,33.37
2019-02-06T00:41:56.488Z,32.80
2019-02-06T00:44:22.534Z,31.95
2019-02-06T00:46:48.975Z,34.13
2019-02-06T00:49:15.017Z,33.67
2019-02-06T00:51:41.527Z,34.38
2019-02-06T00:54:07.599Z,32.90
2019-02-06T00:56:33.636Z,32.25
2019-02-06T00:58:59.708Z,32.67
2019-02-06T01:01:25.860Z,32.48
2019-02-06T01:03:51.932Z,31.23
2019-02-06T01:06:18.068Z,32.42
2019-02-06T01:08:44.405Z,31.33
2019-02-06T01:11:10.587Z,30.97
2019-02-06T01:13:36.729Z,30.10
2019-02-06T01:16:02.942Z,30.60
2019-02-06T01:18:29.019Z,30.43
2019-02-06T01:20:55.150Z,29.60
2019-02-06T01:23:21.277Z,31.95
2019-02-06T01:25:47.438Z,30.97
2019-02-06T01:28:13.494Z,31.25
2019-02-06T01:30:44.827Z,29.90
2019-02-06T01:33:10.920Z,29.85
2019-02-06T01:35:37.014Z,30.00
2019-02-06T01:38:03.227Z,28.10
2019-02-06T01:40:29.272Z,28.83
2019-02-06T01:42:55.374Z,28.55
2019-02-06T01:45:21.694Z,28.80
2019-02-06T01:47:47.946Z,27.37
2019-02-06T01:50:16.331Z,28.17
2019-02-06T01:52:42.615Z,26.93
2019-02-06T01:55:11.447Z,27.15
2019-02-06T01:57:37.508Z,27.15
2019-02-06T02:00:15.616Z,25.10
2019-02-06T02:02:42.027Z,26.60
2019-02-06T02:05:08.298Z,28.73
2019-02-06T02:07:34.331Z,27.67
2019-02-06T02:10:00.600Z,29.25
2019-02-06T02:12:26.739Z,30.05
2019-02-06T02:14:52.783Z,29.97
2019-02-06T02:17:18.943Z,30.80
2019-02-06T02:19:45.217Z,31.73
2019-02-06T02:22:11.358Z,32.05
2019-02-06T02:24:37.383Z,31.87
2019-02-06T02:27:03.853Z,34.18
2019-02-06T02:29:29.896Z,33.80
2019-02-06T02:31:56.038Z,36.93
2019-02-06T02:34:22.180Z,38.35
2019-02-06T02:36:48.218Z,38.00
2019-02-06T02:39:14.282Z,37.65
2019-02-06T02:41:40.429Z,36.38
2019-02-06T02:44:06.674Z,38.88
2019-02-06T02:46:33.098Z,36.63
2019-02-06T02:48:59.564Z,37.98
2019-02-06T02:51:25.607Z,39.27
2019-02-06T02:53:51.768Z,40.30
2019-02-06T02:56:17.926Z,40.70
2019-02-06T02:58:43.999Z,40.48
2019-02-06T03:01:14.459Z,41.35
2019-02-06T03:03:42.408Z,42.27
2019-02-06T03:06:08.839Z,42.40
2019-02-06T03:08:34.854Z,44.63
2019-02-06T03:11:01.092Z,42.90
2019-02-06T03:13:27.152Z,44.93
2019-02-06T03:15:53.272Z,43.68
2019-02-06T03:18:19.584Z,44.27
2019-02-06T03:20:45.628Z,43.23
2019-02-06T03:23:11.694Z,44.83
2019-02-06T03:25:37.815Z,43.83
2019-02-06T03:28:03.951Z,43.33
2019-02-06T03:30:30.118Z,44.77
2019-02-06T03:32:56.469Z,44.38
2019-02-06T03:35:22.529Z,44.53
2019-02-06T03:37:48.588Z,45.17
2019-02-06T03:40:16.535Z,44.05
2019-02-06T03:42:42.691Z,42.90
2019-02-06T03:45:11.425Z,44.17
2019-02-06T03:47:37.599Z,45.75
2019-02-06T03:50:10.228Z,45.83
2019-02-06T03:52:36.253Z,44.00
2019-02-06T03:55:04.091Z,45.88
2019-02-06T03:57:30.177Z,46.35
2019-02-06T03:59:56.243Z,44.38
2019-02-06T04:02:22.276Z,46.17
2019-02-06T04:04:48.815Z,44.85
2019-02-06T04:07:14.902Z,44.80
2019-02-06T04:09:40.972Z,44.90
2019-02-06T04:12:07.295Z,45.67
2019-02-06T04:14:33.355Z,45.40
2019-02-06T04:16:59.449Z,44.10
2019-02-06T04:19:25.502Z,44.00
2019-02-06T04:21:51.834Z,44.40
2019-02-06T04:24:17.932Z,44.15
2019-02-06T04:26:44.144Z,42.80
2019-02-06T04:29:10.204Z,43.92
2019-02-06T04:31:36.344Z,43.42
2019-02-06T04:34:03.204Z,43.28
2019-02-06T04:36:29.329Z,41.08
2019-02-06T04:38:55.371Z,42.75
2019-02-06T04:41:23.596Z,42.30
2019-02-06T04:43:49.760Z,41.10
2019-02-06T04:46:16.001Z,40.55
2019-02-06T04:48:42.177Z,42.85
2019-02-06T04:51:08.205Z,42.30
2019-02-06T04:53:34.231Z,46.93
2019-02-06T04:56:00.403Z,42.90
2019-02-06T04:58:26.444Z,41.98
2019-02-06T05:00:52.508Z,40.90
2019-02-06T05:03:18.605Z,43.30
2019-02-06T05:05:44.675Z,39.53
2019-02-06T05:08:10.804Z,42.10
2019-02-06T05:10:37.105Z,41.63
2019-02-06T05:13:03.319Z,41.00
2019-02-06T05:15:29.419Z,41.45
2019-02-06T05:17:56.020Z,42.13
2019-02-06T05:20:38.324Z,41.63
2019-02-06T05:23:05.138Z,42.50
2019-02-06T05:25:31.388Z,40.95
2019-02-06T05:27:57.441Z,43.13
2019-02-06T05:30:23.455Z,41.45
2019-02-06T05:32:49.763Z,41.60
2019-02-06T05:35:15.907Z,40.50
2019-02-06T05:37:42.061Z,40.85
2019-02-06T05:40:09.837Z,41.02
2019-02-06T05:42:35.881Z,40.40
2019-02-06T05:45:04.639Z,42.13
2019-02-06T05:47:31.438Z,40.20
2019-02-06T05:49:57.474Z,40.15
2019-02-06T05:52:23.604Z,38.08
2019-02-06T05:54:49.927Z,37.95
2019-02-06T05:57:16.028Z,39.15
2019-02-06T05:59:42.133Z,38.33
2019-02-06T06:02:08.215Z,37.78
2019-02-06T06:04:43.374Z,38.30
2019-02-06T06:07:09.859Z,38.42
2019-02-06T06:09:36.067Z,34.98
2019-02-06T06:12:02.257Z,36.38
2019-02-06T06:14:28.345Z,35.57
2019-02-06T06:16:54.492Z,35.98
2019-02-06T06:19:20.921Z,35.80
2019-02-06T06:21:47.054Z,37.93
2019-02-06T06:24:13.492Z,34.90
2019-02-06T06:26:39.596Z,35.23
2019-02-06T06:29:05.632Z,37.38
2019-02-06T06:31:31.694Z,36.27
2019-02-06T06:33:59.774Z,34.50
2019-02-06T06:36:25.797Z,33.53
2019-02-06T06:38:51.812Z,34.63
2019-02-06T06:41:18.111Z,34.70
2019-02-06T06:43:44.145Z,33.42
2019-02-06T06:46:10.623Z,33.20
2019-02-06T06:48:37.049Z,33.45
2019-02-06T06:51:03.128Z,32.45
2019-02-06T06:53:29.171Z,31.93
2019-02-06T06:55:55.295Z,32.30
2019-02-06T06:58:21.327Z,32.00
2019-02-06T07:00:47.350Z,30.80
2019-02-06T07:03:13.384Z,31.17
2019-02-06T07:05:39.422Z,31.00
2019-02-06T07:08:11.152Z,32.10
2019-02-06T07:10:33.502Z,31.10
2019-02-06T07:12:59.523Z,29.30
2019-02-06T07:15:30.893Z,29.65
2019-02-06T07:17:56.925Z,29.63
2019-02-06T07:20:23.019Z,29.60
2019-02-06T07:22:49.045Z,28.87
2019-02-06T07:25:17.369Z,29.35
2019-02-06T07:27:43.527Z,28.10
2019-02-06T07:30:24.667Z,27.67
2019-02-06T07:32:50.818Z,28.73
2019-02-06T07:35:16.836Z,25.75
2019-02-06T07:37:42.876Z,25.48
2019-02-06T07:40:11.670Z,25.33
2019-02-06T07:42:37.730Z,24.12
2019-02-06T07:45:09.478Z,24.15
2019-02-06T07:47:35.647Z,24.85
2019-02-06T07:50:04.480Z,22.98
2019-02-06T07:52:30.501Z,24.85
2019-02-06T07:54:56.543Z,23.50
2019-02-06T07:57:22.580Z,21.65
2019-02-06T07:59:48.792Z,20.03
2019-02-06T08:02:14.848Z,20.15
2019-02-06T08:04:41.676Z,21.05
2019-02-06T08:07:09.692Z,21.85
2019-02-06T08:09:35.715Z,21.45
2019-02-06T08:12:01.783Z,22.60
2019-02-06T08:14:27.802Z,21.60
2019-02-06T08:16:53.819Z,19.95
2019-02-06T08:19:19.986Z,18.70
2019-02-06T08:21:46.041Z,18.12
2019-02-06T08:24:12.066Z,18.60
2019-02-06T08:26:38.287Z,18.07
2019-02-06T08:29:04.418Z,18.65
2019-02-06T08:31:30.467Z,19.25
2019-02-06T08:33:56.503Z,18.37
2019-02-06T08:36:22.559Z,18.52
2019-02-06T08:38:49.552Z,17.55
2019-02-06T08:41:16.574Z,19.62
2019-02-06T08:43:42.587Z,19.10
2019-02-06T08:46:08.616Z,18.20
2019-02-06T08:48:34.667Z,17.23
2019-02-06T08:51:00.792Z,16.90
2019-02-06T08:53:26.827Z,16.25
2019-02-06T08:55:52.883Z,16.60
2019-02-06T08:58:19.063Z,16.83
2019-02-06T09:00:45.095Z,16.80
2019-02-06T09:03:11.367Z,15.60
2019-02-06T09:05:37.471Z,16.40
2019-02-06T09:08:03.783Z,15.48
2019-02-06T09:10:30.556Z,15.90
2019-02-06T09:12:58.992Z,17.00
2019-02-06T09:15:27.441Z,16.23
2019-02-06T09:17:53.458Z,17.02
2019-02-06T09:20:21.827Z,16.93
2019-02-06T09:22:47.865Z,16.00
2019-02-06T09:25:16.403Z,15.00
2019-02-06T09:27:42.749Z,15.50
2019-02-06T09:30:12.642Z,16.10
2019-02-06T09:32:38.651Z,15.50
2019-02-06T09:35:05.483Z,17.17
2019-02-06T09:37:31.542Z,14.93
2019-02-06T09:39:57.974Z,15.30
2019-02-06T09:42:24.011Z,14.45
2019-02-06T09:44:50.083Z,15.30
2019-02-06T09:47:16.122Z,14.45
2019-02-06T09:49:42.232Z,14.23
2019-02-06T09:52:08.373Z,14.87
2019-02-06T09:54:34.661Z,15.03
2019-02-06T09:57:00.687Z,13.80
2019-02-06T09:59:26.859Z,14.10
2019-02-06T10:01:53.190Z,13.03
2019-02-06T10:04:19.378Z,12.83
2019-02-06T10:06:45.408Z,13.18
2019-02-06T10:09:22.359Z,12.75
2019-02-06T10:11:39.476Z,12.90
2019-02-06T10:14:05.500Z,13.70
2019-02-06T10:16:31.527Z,12.60
2019-02-06T10:18:57.559Z,13.23
2019-02-06T10:21:24.191Z,12.63
2019-02-06T10:23:50.475Z,12.20
2019-02-06T10:26:16.520Z,12.20
2019-02-06T10:28:42.543Z,12.70
2019-02-06T10:31:08.589Z,12.70
2019-02-06T10:33:35.225Z,12.68
2019-02-06T10:36:01.235Z,13.20
2019-02-06T10:38:27.289Z,12.37
2019-02-06T10:40:53.449Z,12.28
2019-02-06T10:43:31.315Z,12.70
2019-02-06T10:45:47.818Z,12.18
2019-02-06T10:48:14.759Z,12.70
2019-02-06T10:50:44.115Z,11.78
2019-02-06T10:53:10.359Z,12.40
2019-02-06T10:55:36.388Z,11.60
2019-02-06T10:58:02.846Z,11.88
2019-02-06T11:00:37.869Z,11.50
2019-02-06T11:03:04.391Z,10.80
2019-02-06T11:05:30.695Z,12.45
2019-02-06T11:07:56.832Z,11.78
2019-02-06T11:10:24.448Z,12.10
2019-02-06T11:12:50.708Z,12.65
2019-02-06T11:15:16.927Z,13.17
2019-02-06T11:17:42.967Z,12.53
2019-02-06T11:20:15.711Z,13.38
2019-02-06T11:22:41.826Z,13.40
2019-02-06T11:25:10.288Z,12.30
2019-02-06T11:27:36.405Z,13.72
2019-02-06T11:30:09.210Z,12.35
2019-02-06T11:32:35.363Z,12.95
2019-02-06T11:35:02.550Z,13.55
2019-02-06T11:37:28.811Z,12.80
2019-02-06T11:39:57.944Z,12.95
2019-02-06T11:42:22.908Z,12.98
2019-02-06T11:44:48.951Z,13.48
2019-02-06T11:47:14.983Z,13.50
2019-02-06T11:49:41.944Z,13.75
2019-02-06T11:52:08.099Z,13.60
2019-02-06T11:54:34.582Z,12.90
2019-02-06T11:57:00.599Z,11.70
2019-02-06T11:59:26.643Z,12.37
2019-02-06T12:01:52.682Z,13.00
2019-02-06T12:04:18.715Z,13.00
2019-02-06T12:06:44.743Z,13.28
2019-02-06T12:09:11.117Z,13.00
2019-02-06T12:11:37.144Z,12.73
2019-02-06T12:14:03.473Z,13.32
2019-02-06T12:16:30.049Z,13.62
2019-02-06T12:18:56.231Z,14.40
2019-02-06T12:21:22.387Z,15.03
2019-02-06T12:23:48.396Z,13.83
2019-02-06T12:26:14.440Z,14.20
2019-02-06T12:28:40.467Z,15.05
2019-02-06T12:31:06.908Z,14.75
2019-02-06T12:36:08.049Z,14.90
2019-02-06T12:38:34.246Z,15.10
2019-02-06T12:41:03.032Z,14.78
2019-02-06T12:43:46.511Z,14.80
2019-02-06T12:46:17.795Z,15.00
2019-02-06T12:48:44.424Z,15.18
2019-02-06T12:51:10.721Z,15.58
2019-02-06T12:56:42.728Z,14.40
2019-02-06T12:59:09.094Z,14.95
2019-02-06T13:06:46.258Z,14.03
2019-02-06T13:09:12.475Z,15.27
2019-02-06T13:11:42.595Z,14.83
2019-02-06T13:14:09.991Z,15.20
2019-02-06T13:16:36.169Z,15.45
2019-02-06T13:19:02.614Z,13.75
2019-02-06T13:21:31.175Z,16.82
2019-02-06T13:23:57.274Z,15.43
2019-02-06T13:26:23.532Z,15.08
2019-02-06T13:28:49.680Z,14.50
2019-02-06T13:31:15.851Z,15.50
2019-02-06T13:33:41.899Z,15.95
2019-02-06T13:36:09.352Z,15.70
2019-02-06T13:38:35.738Z,15.15
2019-02-06T13:41:01.927Z,16.00
2019-02-06T13:43:28.180Z,15.00
2019-02-06T13:45:54.584Z,15.30
2019-02-06T13:48:21.901Z,15.83
2019-02-06T13:50:48.371Z,15.40
2019-02-06T13:53:14.565Z,14.90
2019-02-06T13:55:40.709Z,14.07
2019-02-06T13:58:27.015Z,14.40
2019-02-06T14:00:44.789Z,14.67
2019-02-06T14:03:11.048Z,14.15
2019-02-06T14:05:40.234Z,13.43
2019-02-06T14:08:09.125Z,13.13
2019-02-06T14:10:35.707Z,13.18
2019-02-06T14:13:02.315Z,13.53
2019-02-06T14:15:34.826Z,12.90
2019-02-06T14:18:01.826Z,13.32
2019-02-06T14:20:28.552Z,13.30
2019-02-06T14:23:04.382Z,12.82
2019-02-06T14:25:34.086Z,13.58
2019-02-06T14:28:13.683Z,13.60
2019-02-06T14:30:43.617Z,13.50
2019-02-06T14:33:28.950Z,13.18
2019-02-06T14:36:18.206Z,13.00
2019-02-06T14:39:19.953Z,13.62
2019-02-06T14:41:54.679Z,13.73
2019-02-06T14:44:45.910Z,13.35
2019-02-06T14:47:24.716Z,13.30
2019-02-06T14:50:00.334Z,12.80
2019-02-06T14:52:45.244Z,13.60
2019-02-06T14:55:32.792Z,12.73
2019-02-06T14:58:02.714Z,13.00
2019-02-06T15:00:47.582Z,13.93
2019-02-06T15:03:35.723Z,12.78
2019-02-06T15:06:05.655Z,12.80
2019-02-06T15:08:35.507Z,12.45
2019-02-06T15:11:19.174Z,12.60
2019-02-06T15:13:45.817Z,13.00
2019-02-06T15:16:24.380Z,12.53
2019-02-06T15:18:54.875Z,13.32
2019-02-06T15:21:42.879Z,13.30
2019-02-06T15:24:19.063Z,13.47
2019-02-06T15:26:48.942Z,13.60
2019-02-06T15:29:35.654Z,14.10
2019-02-06T15:32:05.555Z,14.60
2019-02-06T15:34:47.570Z,13.30
2019-02-06T15:37:27.007Z,13.60
2019-02-06T15:40:08.997Z,14.85
2019-02-06T15:42:58.545Z,14.30
2019-02-06T15:45:43.617Z,15.00
2019-02-06T15:48:29.292Z,14.80
2019-02-06T15:51:11.098Z,16.25
2019-02-06T15:53:44.219Z,17.15
2019-02-06T15:56:19.504Z,15.78
2019-02-06T15:59:04.331Z,16.52
2019-02-06T16:01:43.327Z,17.82
2019-02-06T16:04:38.188Z,17.17
2019-02-06T16:07:17.388Z,16.87
2019-02-06T16:10:05.074Z,16.00
2019-02-06T16:12:51.735Z,16.95
2019-02-06T16:15:24.670Z,17.48
2019-02-06T16:17:56.352Z,18.20
2019-02-06T16:20:29.191Z,17.60
2019-02-06T16:23:05.274Z,17.50
2019-02-06T16:25:52.821Z,18.15
2019-02-06T16:28:26.127Z,18.60
2019-02-06T16:31:05.378Z,18.50
2019-02-06T16:33:41.439Z,19.30
2019-02-06T16:36:30.839Z,19.57
2019-02-06T16:39:23.499Z,18.37
2019-02-06T16:42:05.839Z,17.70
2019-02-06T16:44:35.813Z,19.40
2019-02-06T16:47:14.871Z,20.48
2019-02-06T16:50:03.073Z,19.62
2019-02-06T16:52:50.948Z,21.45
2019-02-06T16:55:51.253Z,21.48
2019-02-06T16:58:23.925Z,21.75
2019-02-06T17:01:03.077Z,21.95
2019-02-06T17:03:36.072Z,21.62
2019-02-06T17:06:22.146Z,21.33
2019-02-06T17:09:12.670Z,21.62
2019-02-06T17:12:04.057Z,23.15
2019-02-06T17:14:38.192Z,23.65
2019-02-06T17:17:29.510Z,24.43
2019-02-06T17:20:08.500Z,25.57
2019-02-06T17:22:45.857Z,26.33
2019-02-06T17:25:24.599Z,25.75
2019-02-06T17:28:12.703Z,25.45
2019-02-06T17:30:45.587Z,26.10
2019-02-06T17:33:45.331Z,25.80
2019-02-06T17:36:21.429Z,28.50
2019-02-06T17:38:54.068Z,26.75
2019-02-06T17:41:26.990Z,30.17
2019-02-06T17:44:26.393Z,30.97
2019-02-06T17:46:59.523Z,32.98
2019-02-06T17:49:46.118Z,31.75
2019-02-06T17:52:15.962Z,31.73
2019-02-06T17:54:51.958Z,32.42
2019-02-06T17:57:19.488Z,34.05
2019-02-06T17:59:45.738Z,36.40
2019-02-06T18:02:12.031Z,33.70
2019-02-06T18:07:13.634Z,34.05
2019-02-06T18:09:40.579Z,36.05
2019-02-06T18:12:06.909Z,34.43
2019-02-06T18:14:32.953Z,35.95
2019-02-06T18:17:01.286Z,35.20
2019-02-06T18:19:27.484Z,34.05
2019-02-06T18:21:53.532Z,35.80
2019-02-06T18:24:19.624Z,34.92
2019-02-06T18:26:46.496Z,34.43
2019-02-06T18:29:13.064Z,35.28
2019-02-06T18:31:39.157Z,32.67
2019-02-06T18:34:06.579Z,32.88
2019-02-06T18:36:33.124Z,34.67
2019-02-06T18:38:59.167Z,34.95
2019-02-06T18:41:25.439Z,33.92
2019-02-06T18:43:51.930Z,35.80
2019-02-06T18:46:18.087Z,36.13
2019-02-06T18:48:44.440Z,35.43
2019-02-06T18:51:10.680Z,34.58
2019-02-06T18:53:37.051Z,34.30
2019-02-06T18:56:04.049Z,36.28
2019-02-06T18:58:30.216Z,35.40
2019-02-06T19:01:16.270Z,35.13
2019-02-06T19:03:43.543Z,35.17
2019-02-06T19:06:09.991Z,36.20
2019-02-06T19:08:36.327Z,35.73
2019-02-06T19:11:03.282Z,34.70
2019-02-06T19:13:29.558Z,36.42
2019-02-06T19:15:56.696Z,32.85
2019-02-06T19:18:23.230Z,36.05
2019-02-06T19:20:49.525Z,33.98
2019-02-06T19:23:15.668Z,35.28
2019-02-06T19:25:41.788Z,35.45
2019-02-06T19:28:07.893Z,33.05
2019-02-06T19:30:39.973Z,34.15
2019-02-06T19:33:06.599Z,35.60
2019-02-06T19:35:32.632Z,36.05
2019-02-06T19:37:58.774Z,35.63
2019-02-06T19:40:24.895Z,35.70
2019-02-06T19:42:59.103Z,34.00
2019-02-06T19:45:19.202Z,32.13
2019-02-06T19:47:45.880Z,33.70
2019-02-06T19:50:23.609Z,32.93
2019-02-06T19:52:49.851Z,33.23
2019-02-06T19:55:17.044Z,35.03
2019-02-06T19:57:43.209Z,34.87
2019-02-06T20:00:18.894Z,36.90
2019-02-06T20:02:45.208Z,35.47
2019-02-06T20:05:14.067Z,38.20
2019-02-06T20:07:40.830Z,41.88
2019-02-06T20:10:32.081Z,37.58
2019-02-06T20:12:58.214Z,37.80
2019-02-06T20:15:25.110Z,38.30
2019-02-06T20:17:52.508Z,36.40
2019-02-06T20:20:21.105Z,35.60
2019-02-06T20:22:47.528Z,35.08
2019-02-06T20:25:14.461Z,34.65
2019-02-06T20:27:40.556Z,36.08
2019-02-06T20:30:18.970Z,34.15
2019-02-06T20:32:45.296Z,33.58
2019-02-06T20:35:13.131Z,34.03
2019-02-06T20:37:39.609Z,32.23
2019-02-06T20:40:09.535Z,33.92
2019-02-06T20:42:35.691Z,33.98
2019-02-06T20:45:02.052Z,35.20
2019-02-06T20:47:28.171Z,37.60
2019-02-06T20:49:54.192Z,38.50
2019-02-06T20:52:20.275Z,37.48
2019-02-06T20:54:47.280Z,35.90
2019-02-06T20:57:15.694Z,34.23
2019-02-06T20:59:41.560Z,32.15
2019-02-06T21:02:07.770Z,33.30
2019-02-06T21:04:34.112Z,35.30
2019-02-06T21:07:00.247Z,32.42
2019-02-06T21:09:26.440Z,31.95
2019-02-06T21:11:52.504Z,30.65
2019-02-06T21:14:18.560Z,33.58
2019-02-06T21:16:44.619Z,33.83
2019-02-06T21:19:10.712Z,34.23
2019-02-06T21:21:36.835Z,32.48
2019-02-06T21:24:03.068Z,34.00
2019-02-06T21:26:29.443Z,32.67
2019-02-06T21:28:56.075Z,33.40
2019-02-06T21:31:22.187Z,33.73
2019-02-06T21:33:49.087Z,32.40
2019-02-06T21:36:15.263Z,33.02
2019-02-06T21:38:41.288Z,33.73
2019-02-06T21:41:07.508Z,34.20
2019-02-06T21:43:43.603Z,36.58
2019-02-06T21:46:01.580Z,36.95
2019-02-06T21:48:27.933Z,35.95
2019-02-06T21:50:54.199Z,36.95
2019-02-06T21:53:26.745Z,35.35
2019-02-06T21:55:52.988Z,37.95
2019-02-06T21:58:19.066Z,38.15
2019-02-06T22:00:45.172Z,38.90
2019-02-06T22:03:11.629Z,39.65
2019-02-06T22:05:39.283Z,41.23
2019-02-06T22:08:05.530Z,40.95
2019-02-06T22:10:32.019Z,41.50
2019-02-06T22:12:58.827Z,42.20
2019-02-06T22:15:32.228Z,43.52
2019-02-06T22:18:00.644Z,43.38
2019-02-06T22:20:27.155Z,44.03
2019-02-06T22:22:53.392Z,43.60
2019-02-06T22:25:19.831Z,43.63
2019-02-06T22:27:45.843Z,43.20
2019-02-06T22:30:24.568Z,43.92
2019-02-06T22:32:50.909Z,42.20
2019-02-06T22:35:17.347Z,43.73
2019-02-06T22:37:43.536Z,44.10
2019-02-06T22:40:12.863Z,44.38
2019-02-06T22:42:39.085Z,41.55
2019-02-06T22:45:08.815Z,42.03
2019-02-06T22:47:34.850Z,45.23
2019-02-06T22:50:00.883Z,45.25
2019-02-06T22:52:27.023Z,43.85
2019-02-06T22:54:53.445Z,44.60
2019-02-06T22:57:19.480Z,44.93
2019-02-06T22:59:45.608Z,45.20
2019-02-06T23:02:12.035Z,44.27
2019-02-06T23:04:38.080Z,45.83
2019-02-06T23:07:04.152Z,43.92
2019-02-06T23:09:32.101Z,47.20
2019-02-06T23:11:58.225Z,44.60
2019-02-06T23:14:24.583Z,46.77
2019-02-06T23:16:50.703Z,46.70
2019-02-06T23:19:16.729Z,45.23
2019-02-06T23:21:42.767Z,43.80
2019-02-06T23:24:08.796Z,42.60
2019-02-06T23:26:34.937Z,43.87
2019-02-06T23:29:01.132Z,46.90
2019-02-06T23:31:27.160Z,45.38
2019-02-06T23:33:53.484Z,46.13
2019-02-06T23:36:20.598Z,46.02
2019-02-06T23:38:46.723Z,47.00
2019-02-06T23:41:12.747Z,48.08
2019-02-06T23:43:38.904Z,47.33
2019-02-06T23:46:05.037Z,48.98
2019-02-06T23:48:31.064Z,47.43
2019-02-06T23:50:57.333Z,47.10
2019-02-06T23:53:23.655Z,44.13
2019-02-06T23:55:49.731Z,46.60
2019-02-06T23:58:16.340Z,43.13
